Time;durP1;ratioP1;P1;durP2;ratioP2;P2;SDS_P1;SDS_P2;PMS_P1;PMS_P2;Temp;Humidity;BMP_temperature;BMP_pressure;BME280_temperature;BME280_humidity;BME280_pressure;Samples;Min_cycle;Max_cycle;Signal;HPM_P1;HPM_P2
2021/10/20 00:00:58;;;;;;;9.07;7.13;;;;;;;14.14;85.01;100921.94;2105869;28;20512;-65
2021/10/20 00:01:58;;;;;;;8.93;7.73;;;;;;;14.12;84.85;100913.34;2097517;28;20039;-66
2021/10/20 00:02:58;;;;;;;8.37;7.57;;;;;;;14.07;85.25;100904.03;2105832;28;20052;-64
2021/10/20 00:03:58;;;;;;;7.03;6.33;;;;;;;14.08;84.51;100922.31;2106436;28;20481;-66
2021/10/20 00:04:59;;;;;;;9.67;6.53;;;;;;;14.14;84.50;100911.44;2106471;28;20393;-65
2021/10/20 00:05:59;;;;;;;12.97;7.70;;;;;;;14.17;84.55;100910.47;2105611;28;20083;-65
2021/10/20 00:06:59;;;;;;;8.53;7.00;;;;;;;14.18;83.95;100911.28;2105886;28;22400;-65
2021/10/20 00:08:03;;;;;;;13.20;6.77;;;;;;;14.22;83.95;100910.19;2105841;28;20035;-65
2021/10/20 00:09:04;;;;;;;9.23;7.75;;;;;;;14.22;84.07;100908.41;2105841;28;20103;-65
2021/10/20 00:10:06;;;;;;;8.93;7.05;;;;;;;14.19;84.01;100910.38;2106432;28;20032;-66
2021/10/20 00:11:06;;;;;;;;;;;;;;;14.20;84.22;100904.19;2107077;28;20111;-66
2021/10/20 00:12:07;;;;;;;6.82;4.80;;;;;;;14.15;83.98;100907.91;2106331;28;19912;-65
2021/10/20 00:13:07;;;;;;;8.52;6.68;;;;;;;14.12;85.30;100908.09;2105774;28;20028;-66
2021/10/20 00:14:07;;;;;;;11.32;6.53;;;;;;;14.08;84.65;100906.56;2106011;28;20435;-65
2021/10/20 00:15:10;;;;;;;7.63;6.80;;;;;;;14.07;84.37;100909.28;2106492;28;20119;-65
2021/10/20 00:16:11;;;;;;;8.32;6.47;;;;;;;14.10;84.56;100906.50;2105697;28;20028;-66
2021/10/20 00:17:11;;;;;;;8.20;6.83;;;;;;;14.14;84.47;100895.72;2105769;28;20119;-65
2021/10/20 00:18:12;;;;;;;7.47;6.63;;;;;;;14.11;84.55;100898.53;2105785;28;20112;-65
2021/10/20 00:19:12;;;;;;;8.70;7.00;;;;;;;14.09;84.04;100892.50;2105755;28;20112;-64
2021/10/20 00:20:17;;;;;;;8.70;5.47;;;;;;;14.10;84.51;100894.19;2105719;28;20028;-66
2021/10/20 00:21:27;;;;;;;12.18;6.65;;;;;;;14.09;84.38;100889.88;2105544;28;20086;-66
2021/10/20 00:22:27;;;;;;;9.93;4.43;;;;;;;14.11;84.45;100889.81;2105788;28;20051;-66
2021/10/20 00:23:27;;;;;;;9.57;5.73;;;;;;;14.08;84.53;100890.81;2106288;28;20016;-65
2021/10/20 00:24:28;;;;;;;9.70;5.23;;;;;;;14.03;84.44;100895.50;2106276;28;20020;-65
2021/10/20 00:25:28;;;;;;;7.43;6.73;;;;;;;14.01;84.52;100894.72;2106475;28;20028;-65
2021/10/20 00:26:29;;;;;;;9.82;6.93;;;;;;;13.99;84.50;100891.34;2106391;28;20024;-66
2021/10/20 00:27:29;;;;;;;9.13;6.53;;;;;;;13.97;85.15;100893.22;2106367;28;20024;-65
2021/10/20 00:28:29;;;;;;;9.83;5.60;;;;;;;13.94;84.53;100891.59;2106169;28;20048;-65
2021/10/20 00:29:30;;;;;;;6.13;5.57;;;;;;;13.95;84.77;100889.81;2105441;28;20024;-65
2021/10/20 00:30:30;;;;;;;7.30;6.60;;;;;;;13.97;84.80;100887.97;2105764;28;20020;-64
2021/10/20 00:31:30;;;;;;;6.53;5.90;;;;;;;14.01;85.29;100884.22;2105675;28;20070;-65
2021/10/20 00:32:31;;;;;;;7.60;6.70;;;;;;;14.09;84.57;100891.69;2105705;28;20457;-66
2021/10/20 00:33:31;;;;;;;10.73;6.37;;;;;;;14.10;84.16;100891.56;2106333;28;20048;-66
2021/10/20 00:34:31;;;;;;;7.90;6.40;;;;;;;14.07;84.19;100893.53;2106304;28;20020;-65
2021/10/20 00:35:32;;;;;;;10.23;6.80;;;;;;;14.06;84.82;100882.19;2105714;28;20536;-65
2021/10/20 00:36:32;;;;;;;8.93;6.72;;;;;;;14.04;84.55;100879.63;2105910;28;20032;-66
2021/10/20 00:37:33;;;;;;;8.03;7.23;;;;;;;14.01;84.43;100879.84;2106454;28;20016;-65
2021/10/20 00:38:33;;;;;;;9.97;7.07;;;;;;;14.04;84.13;100873.56;2106491;28;20023;-65
2021/10/20 00:39:33;;;;;;;10.40;7.10;;;;;;;14.10;84.01;100867.94;2106483;28;20016;-64
2021/10/20 00:40:34;;;;;;;7.93;6.27;;;;;;;14.09;84.15;100866.28;2106455;28;20422;-64
2021/10/20 00:41:34;;;;;;;8.37;6.47;;;;;;;14.05;84.14;100864.75;2106323;28;20085;-64
2021/10/20 00:42:35;;;;;;;10.20;7.77;;;;;;;14.07;84.39;100864.66;2106386;28;20031;-65
2021/10/20 00:43:35;;;;;;;8.93;6.65;;;;;;;14.06;83.89;100863.81;2106338;28;20024;-65
2021/10/20 00:44:48;;;;;;;8.90;6.70;;;;;;;14.10;84.11;100865.31;2108063;28;20032;-65
2021/10/20 00:45:49;;;;;;;8.85;6.75;;;;;;;14.13;83.21;100857.28;2108049;28;20687;-65
2021/10/20 00:46:49;;;;;;;6.95;6.25;;;;;;;14.08;84.16;100861.97;2107208;28;20047;-65
2021/10/20 00:47:50;;;;;;;7.67;6.87;;;;;;;14.04;83.78;100853.41;2107478;28;20028;-64
2021/10/20 00:48:50;;;;;;;9.10;6.60;;;;;;;14.05;83.50;100864.75;2107987;28;20076;-64
2021/10/20 00:49:51;;;;;;;8.43;6.47;;;;;;;14.07;84.42;100862.91;2107955;28;20024;-64
2021/10/20 00:50:52;;;;;;;8.32;6.43;;;;;;;14.08;83.77;100859.34;2107795;28;20043;-65
2021/10/20 00:51:52;;;;;;;8.05;6.93;;;;;;;14.11;83.84;100845.19;2108046;28;20024;-65
2021/10/20 00:52:53;;;;;;;8.57;6.57;;;;;;;14.08;83.85;100846.22;2108015;28;20030;-65
2021/10/20 00:53:55;;;;;;;9.00;7.53;;;;;;;14.05;84.69;100854.25;2107103;28;20024;-65
2021/10/20 00:54:56;;;;;;;7.05;6.07;;;;;;;14.04;83.76;100849.94;2107299;28;20085;-64
2021/10/20 00:55:56;;;;;;;8.95;6.47;;;;;;;14.06;84.04;100845.44;2107908;28;20024;-65
2021/10/20 00:56:57;;;;;;;9.20;6.90;;;;;;;14.06;84.45;100853.31;2107247;28;20062;-65
2021/10/20 00:57:58;;;;;;;8.70;6.80;;;;;;;14.10;84.19;100857.47;2107237;28;20109;-65
2021/10/20 00:58:58;;;;;;;9.25;6.55;;;;;;;14.13;83.77;100846.78;2107737;28;20020;-66
2021/10/20 01:00:03;;;;;;;11.47;6.63;;;;;;;14.12;83.44;100839.88;2107870;28;20526;-66
2021/10/20 01:01:04;;;;;;;7.70;6.65;;;;;;;14.10;83.78;100846.13;2107892;28;20293;-65
2021/10/20 01:02:05;;;;;;;7.23;6.63;;;;;;;14.03;83.89;100845.66;2107888;28;20031;-65
2021/10/20 01:03:06;;;;;;;8.93;6.32;;;;;;;13.99;84.53;100844.13;2108014;28;20028;-65
2021/10/20 01:04:06;;;;;;;7.87;6.60;;;;;;;13.98;83.73;100845.03;2107998;28;20095;-64
2021/10/20 01:05:08;;;;;;;8.53;6.63;;;;;;;14.03;83.59;100840.41;2107781;28;20050;-65
2021/10/20 01:06:08;;;;;;;9.30;7.88;;;;;;;14.03;83.94;100835.16;2107801;28;20020;-65
2021/10/20 01:07:09;;;;;;;10.70;6.97;;;;;;;14.04;84.04;100823.72;2107807;28;20133;-65
2021/10/20 01:08:09;;;;;;;8.95;7.05;;;;;;;14.07;83.54;100828.78;2107770;28;20055;-66
2021/10/20 01:09:09;;;;;;;11.13;6.67;;;;;;;14.11;82.98;100824.19;2107756;28;20039;-65
2021/10/20 01:10:10;;;;;;;11.57;6.77;;;;;;;14.11;83.57;100822.44;2107887;28;20031;-65
2021/10/20 01:11:11;;;;;;;8.23;6.30;;;;;;;14.06;83.52;100813.13;2107048;28;20020;-65
2021/10/20 01:12:12;;;;;;;9.55;6.95;;;;;;;14.03;83.31;100808.91;2107145;28;20580;-65
2021/10/20 01:13:13;;;;;;;;;;;;;;;14.03;83.63;100819.41;2108373;28;20042;-65
2021/10/20 01:14:13;;;;;;;10.63;6.20;;;;;;;14.04;83.69;100814.03;2107187;28;20384;-65
2021/10/20 01:15:20;;;;;;;9.70;6.07;;;;;;;14.01;83.83;100813.38;2107182;28;20062;-65
2021/10/20 01:16:21;;;;;;;6.85;5.95;;;;;;;13.96;84.10;100813.66;2107739;28;20119;-65
2021/10/20 01:17:21;;;;;;;9.13;5.85;;;;;;;13.94;84.37;100820.78;2107768;28;20031;-66
2021/10/20 01:18:22;;;;;;;6.85;6.03;;;;;;;13.92;84.36;100811.31;2107663;28;20392;-66
2021/10/20 01:19:22;;;;;;;10.53;6.87;;;;;;;13.93;83.97;100813.00;2107829;28;20044;-65
2021/10/20 01:20:25;;;;;;;13.43;6.80;;;;;;;13.95;83.85;100813.72;2107195;28;20016;-65
2021/10/20 01:21:25;;;;;;;10.00;7.68;;;;;;;14.02;83.42;100813.31;2107241;28;20115;-65
2021/10/20 01:22:25;;;;;;;8.67;6.50;;;;;;;14.09;83.00;100808.53;2107940;28;20479;-64
2021/10/20 01:23:27;;;;;;;7.57;6.87;;;;;;;14.08;83.18;100812.09;2107787;28;20028;-65
2021/10/20 01:24:27;;;;;;;7.55;6.55;;;;;;;14.00;83.56;100809.91;2107808;28;20024;-66
2021/10/20 01:25:28;;;;;;;8.47;6.40;;;;;;;13.98;83.60;100800.44;2107817;28;20049;-66
2021/10/20 01:26:29;;;;;;;10.33;6.50;;;;;;;14.01;84.19;100800.28;2107747;28;20020;-65
2021/10/20 01:27:30;;;;;;;11.50;6.93;;;;;;;13.97;83.52;100791.75;2107753;28;20020;-67
2021/10/20 01:28:30;;;;;;;9.68;6.53;;;;;;;14.01;83.57;100795.03;2107786;28;20016;-66
2021/10/20 01:29:30;;;;;;;8.37;6.27;;;;;;;14.03;83.06;100798.41;2107028;28;20027;-66
2021/10/20 01:30:30;;;;;;;9.10;6.77;;;;;;;14.03;83.59;100801.03;2107089;28;20031;-66
2021/10/20 01:31:31;;;;;;;7.73;5.37;;;;;;;14.07;83.22;100801.69;2107749;28;20039;-66
2021/10/20 01:32:31;;;;;;;10.07;8.03;;;;;;;14.11;83.56;100798.81;2107573;28;20443;-66
2021/10/20 01:33:31;;;;;;;9.20;6.23;;;;;;;14.15;83.47;100792.44;2107814;28;20127;-66
2021/10/20 01:34:33;;;;;;;7.40;6.70;;;;;;;14.16;82.88;100788.03;2107133;28;20059;-66
2021/10/20 01:35:33;;;;;;;8.65;6.22;;;;;;;14.21;83.08;100786.00;2106853;28;20040;-66
2021/10/20 01:36:34;;;;;;;6.97;6.37;;;;;;;14.20;82.55;100781.66;2107537;28;20024;-66
2021/10/20 01:37:35;;;;;;;6.63;5.70;;;;;;;14.12;83.03;100787.38;2107578;28;20039;-66
2021/10/20 01:38:35;;;;;;;8.20;7.40;;;;;;;14.09;83.18;100787.56;2107659;28;20497;-66
2021/10/20 01:39:35;;;;;;;6.97;6.27;;;;;;;14.06;83.99;100779.84;2107756;28;20024;-66
2021/10/20 01:40:35;;;;;;;6.63;6.03;;;;;;;14.05;83.61;100780.78;2107803;28;20023;-66
2021/10/20 01:41:37;;;;;;;8.77;6.87;;;;;;;14.10;82.69;100781.34;2107620;28;20043;-65
2021/10/20 01:42:38;;;;;;;7.45;6.60;;;;;;;14.09;83.06;100781.47;2107546;28;20043;-66
2021/10/20 01:43:46;;;;;;;8.85;7.43;;;;;;;14.09;83.38;100777.06;2107639;28;20482;-67
2021/10/20 01:44:47;;;;;;;7.85;7.05;;;;;;;14.04;84.03;100777.31;2107658;28;20098;-67
2021/10/20 01:45:47;;;;;;;7.10;6.27;;;;;;;14.08;83.50;100775.38;2107031;28;20425;-65
2021/10/20 01:46:47;;;;;;;13.03;7.10;;;;;;;14.08;83.04;100785.88;2107032;28;20032;-65
2021/10/20 01:47:48;;;;;;;6.97;6.10;;;;;;;14.09;83.17;100777.06;2107625;28;20441;-66
2021/10/20 01:48:48;;;;;;;10.57;6.80;;;;;;;14.09;83.39;100776.22;2107629;28;20024;-65
2021/10/20 01:49:49;;;;;;;7.83;6.30;;;;;;;14.09;83.58;100776.22;2107457;28;20081;-66
2021/10/20 01:50:49;;;;;;;9.35;7.00;;;;;;;14.06;83.34;100781.66;2107637;28;20020;-65
2021/10/20 01:51:49;;;;;;;9.13;5.97;;;;;;;14.06;83.25;100771.16;2107627;28;20028;-66
2021/10/20 01:52:50;;;;;;;10.40;7.03;;;;;;;14.13;82.94;100773.31;2106804;28;20122;-66
2021/10/20 01:53:50;;;;;;;10.83;6.53;;;;;;;14.26;82.27;100764.72;2107020;28;20480;-65
2021/10/20 01:54:50;;;;;;;6.50;5.70;;;;;;;14.29;82.53;100777.66;2107325;28;20028;-64
2021/10/20 01:55:51;;;;;;;7.17;6.03;;;;;;;14.28;83.43;100768.09;2106779;28;20024;-64
2021/10/20 01:56:53;;;;;;;11.38;7.05;;;;;;;14.28;82.32;100781.22;2107589;28;20480;-64
2021/10/20 01:57:54;;;;;;;9.88;6.90;;;;;;;14.27;82.35;100769.88;2107477;28;20550;-66
2021/10/20 01:58:54;;;;;;;7.33;6.13;;;;;;;14.28;82.67;100775.97;2107440;28;20024;-65
2021/10/20 01:59:55;;;;;;;8.57;7.10;;;;;;;14.28;82.60;100765.47;2107525;28;20028;-66
2021/10/20 02:00:55;;;;;;;9.60;6.10;;;;;;;14.28;82.52;100765.47;2107606;28;20066;-65
2021/10/20 02:01:55;;;;;;;7.17;6.47;;;;;;;14.32;81.89;100764.34;2107564;28;20024;-64
2021/10/20 02:02:55;;;;;;;11.20;6.63;;;;;;;14.34;81.93;100754.59;2107268;28;20059;-65
2021/10/20 02:03:56;;;;;;;7.97;6.33;;;;;;;14.31;82.35;100764.44;2107452;28;20020;-65
2021/10/20 02:04:56;;;;;;;9.33;7.03;;;;;;;14.28;82.51;100760.22;2106760;28;20085;-65
2021/10/20 02:05:56;;;;;;;8.10;7.17;;;;;;;14.25;82.69;100752.53;2106760;28;20027;-65
2021/10/20 02:06:56;;;;;;;10.30;6.67;;;;;;;14.28;82.05;100752.34;2098198;28;20487;-65
2021/10/20 02:07:57;;;;;;;9.23;6.83;;;;;;;14.36;81.94;100752.75;2106841;28;20031;-66
2021/10/20 02:08:57;;;;;;;9.03;7.00;;;;;;;14.41;81.51;100749.84;2107458;28;20084;-66
2021/10/20 02:09:57;;;;;;;8.13;6.37;;;;;;;14.44;82.33;100748.81;2107603;28;20028;-66
2021/10/20 02:10:58;;;;;;;7.50;6.57;;;;;;;14.41;82.06;100749.84;2107448;28;20027;-66
2021/10/20 02:11:58;;;;;;;8.07;6.70;;;;;;;14.36;82.11;100742.25;2106795;28;20024;-66
2021/10/20 02:12:58;;;;;;;10.60;6.50;;;;;;;14.41;81.71;100749.84;2106886;28;20838;-66
2021/10/20 02:13:59;;;;;;;8.10;6.03;;;;;;;14.41;82.77;100745.41;2107246;28;20118;-66
2021/10/20 02:14:59;;;;;;;9.15;6.82;;;;;;;14.41;81.83;100742.78;2106773;28;20123;-66
2021/10/20 02:15:59;;;;;;;9.17;7.13;;;;;;;14.38;82.02;100737.75;2106866;28;20098;-66
2021/10/20 02:17:00;;;;;;;8.73;6.43;;;;;;;14.35;82.80;100745.81;2107265;28;20027;-66
2021/10/20 02:18:00;;;;;;;6.40;5.53;;;;;;;14.34;81.89;100733.59;2107260;28;20097;-65
2021/10/20 02:19:01;;;;;;;6.40;5.70;;;;;;;14.33;82.27;100742.41;2107162;28;20469;-66
2021/10/20 02:20:04;;;;;;;7.13;5.68;;;;;;;14.32;82.26;100740.72;2106506;28;20544;-66
2021/10/20 02:21:04;;;;;;;9.38;6.97;;;;;;;14.32;82.64;100745.97;2106679;28;20058;-66
2021/10/20 02:22:06;;;;;;;7.75;6.47;;;;;;;14.33;82.24;100744.22;2107459;28;20455;-66
2021/10/20 02:23:06;;;;;;;7.75;5.57;;;;;;;14.33;82.24;100734.53;2107309;28;20512;-64
2021/10/20 02:24:07;;;;;;;12.13;7.20;;;;;;;14.36;82.44;100742.25;2107389;28;20020;-65
2021/10/20 02:25:09;;;;;;;7.55;6.18;;;;;;;14.41;81.94;100740.16;2107334;28;20043;-66
2021/10/20 02:26:09;;;;;;;9.25;6.40;;;;;;;14.49;81.30;100746.75;2107330;28;20024;-66
2021/10/20 02:27:09;;;;;;;8.97;6.80;;;;;;;14.48;82.09;100742.44;2106542;28;20386;-65
2021/10/20 02:28:10;;;;;;;9.10;7.27;;;;;;;14.44;81.99;100743.56;2106879;28;20031;-65
2021/10/20 02:29:11;;;;;;;8.57;6.72;;;;;;;14.44;81.59;100731.25;2107219;28;20032;-65
2021/10/20 02:30:11;;;;;;;10.82;7.40;;;;;;;14.42;81.93;100733.16;2107331;28;20032;-65
2021/10/20 02:31:11;;;;;;;8.77;7.20;;;;;;;14.48;81.89;100737.19;2107186;28;20036;-65
2021/10/20 02:32:12;;;;;;;12.87;7.50;;;;;;;14.49;81.72;100736.25;2107308;28;20035;-64
2021/10/20 02:33:12;;;;;;;8.33;6.53;;;;;;;14.45;81.74;100729.50;2106512;28;20031;-65
2021/10/20 02:34:15;;;;;;;8.83;6.60;;;;;;;14.42;82.16;100736.63;2106572;28;20073;-66
2021/10/20 02:35:15;;;;;;;7.68;6.88;;;;;;;14.47;82.01;100732.88;2106944;28;20024;-66
2021/10/20 02:36:15;;;;;;;8.40;6.63;;;;;;;14.44;81.94;100733.88;2107177;28;20024;-66
2021/10/20 02:37:16;;;;;;;15.13;6.70;;;;;;;14.45;81.78;100734.75;2107174;28;20469;-67
2021/10/20 02:38:16;;;;;;;11.02;6.90;;;;;;;14.40;82.30;100735.88;2106608;28;20020;-65
2021/10/20 02:39:16;;;;;;;11.70;7.17;;;;;;;14.38;82.62;100735.13;2106715;28;20092;-65
2021/10/20 02:40:17;;;;;;;11.03;7.60;;;;;;;14.39;82.00;100735.94;2106460;28;20070;-65
2021/10/20 02:41:17;;;;;;;10.32;7.28;;;;;;;14.44;82.03;100722.56;2098184;28;20112;-66
2021/10/20 02:42:17;;;;;;;8.50;6.23;;;;;;;14.47;81.46;100728.44;2106620;28;20085;-66
2021/10/20 02:43:18;;;;;;;9.77;6.70;;;;;;;14.48;81.72;100724.06;2107168;28;20495;-66
2021/10/20 02:44:18;;;;;;;10.25;7.28;;;;;;;14.46;82.31;100725.91;2107267;28;20055;-65
2021/10/20 02:45:19;;;;;;;8.83;7.07;;;;;;;14.43;81.86;100724.31;2107162;28;20024;-65
2021/10/20 02:46:19;;;;;;;8.00;7.20;;;;;;;14.42;81.93;100718.25;2107176;28;20012;-66
2021/10/20 02:47:19;;;;;;;7.97;7.27;;;;;;;14.45;82.32;100719.84;2107127;28;20084;-65
2021/10/20 02:48:20;;;;;;;11.77;8.63;;;;;;;14.46;81.77;100716.28;2107159;28;20112;-65
2021/10/20 02:49:20;;;;;;;9.30;7.07;;;;;;;14.47;82.48;100725.00;2107168;28;20046;-66
2021/10/20 02:50:22;;;;;;;9.73;8.70;;;;;;;14.44;82.29;100719.94;2107095;28;20775;-67
2021/10/20 02:51:23;;;;;;;7.70;6.97;;;;;;;14.42;81.69;100720.03;2107011;28;20039;-66
2021/10/20 02:52:23;;;;;;;10.68;6.82;;;;;;;14.48;82.11;100718.81;2107200;28;20020;-66
2021/10/20 02:53:23;;;;;;;11.83;7.93;;;;;;;14.47;81.77;100717.13;2107121;28;20024;-66
2021/10/20 02:54:24;;;;;;;7.80;7.00;;;;;;;14.46;82.04;100716.28;2107152;28;20032;-67
2021/10/20 02:55:24;;;;;;;7.60;5.70;;;;;;;14.49;81.75;100715.22;2107070;28;20081;-66
2021/10/20 02:56:25;;;;;;;7.67;6.70;;;;;;;14.49;82.51;100715.22;2106402;28;20035;-65
2021/10/20 02:57:26;;;;;;;12.15;7.25;;;;;;;14.44;82.40;100714.69;2106522;28;20285;-66
2021/10/20 02:58:27;;;;;;;9.52;7.22;;;;;;;14.49;81.91;100707.34;2107087;28;20024;-66
2021/10/20 02:59:27;;;;;;;12.27;7.65;;;;;;;14.49;82.21;100704.72;2107132;28;20046;-66
2021/10/20 03:00:27;;;;;;;8.48;6.93;;;;;;;14.46;82.21;100702.28;2107145;28;20107;-66
2021/10/20 03:01:28;;;;;;;13.23;7.33;;;;;;;14.41;81.94;100708.66;2107141;28;20038;-66
2021/10/20 03:02:28;;;;;;;11.57;7.97;;;;;;;14.36;83.00;100702.88;2107081;28;20051;-67
2021/10/20 03:03:28;;;;;;;13.43;7.67;;;;;;;14.37;82.26;100712.41;2106940;28;20020;-67
2021/10/20 03:04:29;;;;;;;10.27;6.87;;;;;;;14.38;82.62;100713.28;2106307;28;20519;-67
2021/10/20 03:05:29;;;;;;;10.73;7.93;;;;;;;14.34;82.87;100711.78;2106441;28;20392;-67
2021/10/20 03:06:30;;;;;;;9.53;7.50;;;;;;;14.42;82.87;100714.78;2106751;28;20040;-66
2021/10/20 03:07:31;;;;;;;9.35;7.03;;;;;;;14.41;82.38;100707.84;2106928;28;20028;-67
2021/10/20 03:08:31;;;;;;;10.82;6.63;;;;;;;14.39;82.29;100700.06;2106355;28;20107;-66
2021/10/20 03:09:31;;;;;;;9.80;7.33;;;;;;;14.44;82.65;100696.31;2106392;28;20043;-66
2021/10/20 03:10:31;;;;;;;9.07;8.07;;;;;;;14.45;82.34;100711.09;2106523;28;20492;-65
2021/10/20 03:11:32;;;;;;;10.57;7.93;;;;;;;14.44;82.29;100701.56;2106426;28;20035;-65
2021/10/20 03:12:32;;;;;;;7.97;7.17;;;;;;;14.40;82.46;100693.84;2107112;28;20024;-65
2021/10/20 03:13:32;;;;;;;11.33;7.10;;;;;;;14.38;82.49;100693.13;2107036;28;20028;-65
2021/10/20 03:14:33;;;;;;;9.52;7.05;;;;;;;14.35;82.68;100703.81;2107006;28;20058;-65
2021/10/20 03:15:33;;;;;;;8.70;6.97;;;;;;;14.31;82.57;100697.06;2106275;28;20055;-65
2021/10/20 03:16:33;;;;;;;9.47;7.60;;;;;;;14.32;83.60;100692.63;2097879;28;20083;-65
2021/10/20 03:17:34;;;;;;;10.03;7.23;;;;;;;14.29;82.96;100688.41;2106327;28;20048;-66
2021/10/20 03:18:34;;;;;;;10.10;7.68;;;;;;;14.37;82.43;100691.41;2106945;28;20373;-65
2021/10/20 03:19:35;;;;;;;16.58;7.43;;;;;;;14.48;82.01;100682.06;2106224;28;20019;-65
2021/10/20 03:20:35;;;;;;;8.73;6.73;;;;;;;14.51;81.77;100672.19;2106413;28;20477;-65
2021/10/20 03:21:35;;;;;;;12.33;7.90;;;;;;;14.55;81.65;100684.19;2106988;28;20097;-66
2021/10/20 03:22:40;;;;;;;11.43;7.97;;;;;;;14.51;82.09;100681.88;2106988;28;20419;-67
2021/10/20 03:23:40;;;;;;;11.38;7.05;;;;;;;14.47;82.68;100686.44;2106993;28;20473;-67
2021/10/20 03:24:40;;;;;;;10.87;6.43;;;;;;;14.45;81.91;100692.72;2106917;28;20016;-66
2021/10/20 03:25:40;;;;;;;7.37;6.57;;;;;;;14.50;82.02;100685.41;2106279;28;20401;-65
2021/10/20 03:26:41;;;;;;;8.50;7.57;;;;;;;14.49;81.96;100689.84;2106286;28;20036;-66
2021/10/20 03:27:46;;;;;;;10.90;7.67;;;;;;;14.47;82.58;100688.25;2106684;28;20082;-66
2021/10/20 03:28:46;;;;;;;11.73;7.63;;;;;;;14.47;81.93;100685.63;2106948;28;20072;-66
2021/10/20 03:29:46;;;;;;;14.13;7.67;;;;;;;14.46;82.18;100686.53;2106922;28;20457;-66
2021/10/20 03:30:46;;;;;;;8.20;6.83;;;;;;;14.44;82.31;100691.06;2106781;28;20032;-65
2021/10/20 03:31:47;;;;;;;10.87;6.87;;;;;;;14.39;82.61;100692.19;2106800;28;20019;-65
2021/10/20 03:32:48;;;;;;;12.00;7.37;;;;;;;14.33;82.87;100681.22;2106848;28;20027;-66
2021/10/20 03:33:48;;;;;;;9.55;7.95;;;;;;;14.27;83.39;100691.13;2106198;28;20059;-66
2021/10/20 03:34:48;;;;;;;10.97;7.97;;;;;;;14.28;82.98;100692.00;2106243;28;20063;-66
2021/10/20 03:35:48;;;;;;;9.30;7.67;;;;;;;14.30;83.12;100684.84;2106728;28;20036;-67
2021/10/20 03:36:49;;;;;;;10.97;7.27;;;;;;;14.33;82.62;100684.66;2106851;28;20032;-66
2021/10/20 03:37:49;;;;;;;9.80;7.93;;;;;;;14.35;82.71;100681.94;2106800;28;20047;-67
2021/10/20 03:38:50;;;;;;;8.97;7.60;;;;;;;14.36;82.97;100681.00;2106766;28;20495;-66
2021/10/20 03:39:50;;;;;;;12.63;7.55;;;;;;;14.30;83.79;100690.09;2106859;28;20027;-66
2021/10/20 03:40:50;;;;;;;9.50;6.97;;;;;;;14.24;83.45;100682.63;2106817;28;20427;-66
2021/10/20 03:41:51;;;;;;;8.50;7.43;;;;;;;14.25;83.11;100677.28;2106774;28;20101;-66
2021/10/20 03:42:51;;;;;;;10.33;7.20;;;;;;;14.25;83.56;100671.16;2106109;28;20024;-67
2021/10/20 03:43:51;;;;;;;9.37;7.47;;;;;;;14.23;84.00;100673.06;2106124;28;20061;-67
2021/10/20 03:44:52;;;;;;;8.67;7.20;;;;;;;14.22;84.00;100671.34;2106160;28;20111;-67
2021/10/20 03:45:52;;;;;;;11.17;7.30;;;;;;;14.27;83.23;100669.31;2097784;28;20489;-66
2021/10/20 03:46:52;;;;;;;10.97;7.60;;;;;;;14.26;83.51;100678.97;2106014;28;20028;-66
2021/10/20 03:47:53;;;;;;;11.00;8.07;;;;;;;14.23;83.63;100673.06;2106808;28;20031;-66
2021/10/20 03:48:53;;;;;;;10.73;7.00;;;;;;;14.23;83.76;100662.56;2106703;28;20035;-67
2021/10/20 03:49:53;;;;;;;14.73;9.15;;;;;;;14.23;84.39;100667.81;2106842;28;20040;-67
2021/10/20 03:50:54;;;;;;;10.03;7.60;;;;;;;14.20;84.28;100662.75;2106757;28;20059;-68
2021/10/20 03:51:54;;;;;;;9.70;7.33;;;;;;;14.19;84.05;100671.56;2106783;28;20695;-66
2021/10/20 03:52:54;;;;;;;9.13;7.23;;;;;;;14.22;83.64;100668.72;2106731;28;20051;-67
2021/10/20 03:53:54;;;;;;;8.43;7.30;;;;;;;14.26;83.59;100667.59;2106717;28;20488;-67
2021/10/20 03:54:55;;;;;;;8.20;7.37;;;;;;;14.27;83.51;100669.31;2106020;28;20028;-66
2021/10/20 03:55:55;;;;;;;10.60;7.57;;;;;;;14.27;83.63;100667.50;2106065;28;20062;-66
2021/10/20 03:56:55;;;;;;;10.87;6.93;;;;;;;14.25;83.62;100665.91;2105966;28;20032;-66
2021/10/20 03:57:55;;;;;;;14.37;8.07;;;;;;;14.26;83.30;100657.09;2106146;28;20173;-67
2021/10/20 03:58:56;;;;;;;10.17;7.20;;;;;;;14.26;83.72;100662.34;2106730;28;20032;-64
2021/10/20 03:59:56;;;;;;;9.43;6.27;;;;;;;14.28;83.64;100663.13;2106722;28;20035;-66
2021/10/20 04:00:57;;;;;;;9.60;7.03;;;;;;;14.29;84.17;100663.03;2105980;28;20032;-66
2021/10/20 04:01:58;;;;;;;12.27;7.88;;;;;;;14.32;83.48;100648.88;2106153;28;20032;-65
2021/10/20 04:02:58;;;;;;;11.67;7.33;;;;;;;14.33;83.30;100649.72;2106718;28;20016;-64
2021/10/20 04:03:58;;;;;;;9.23;7.27;;;;;;;14.35;83.52;100650.44;2106640;28;20052;-65
2021/10/20 04:04:58;;;;;;;11.03;7.13;;;;;;;14.36;83.97;100653.00;2106031;28;20051;-65
2021/10/20 04:05:59;;;;;;;8.93;6.60;;;;;;;14.32;83.52;100653.25;2106020;28;20020;-65
2021/10/20 04:06:59;;;;;;;13.07;7.87;;;;;;;14.28;83.68;100652.63;2106645;28;20384;-66
2021/10/20 04:07:59;;;;;;;10.57;7.47;;;;;;;14.33;83.74;100644.47;2106576;28;20081;-66
2021/10/20 04:08:59;;;;;;;9.13;6.90;;;;;;;14.35;83.24;100643.44;2106691;28;20028;-65
2021/10/20 04:10:00;;;;;;;10.00;6.83;;;;;;;14.34;83.73;100641.72;2106595;28;20031;-65
2021/10/20 04:11:00;;;;;;;10.00;6.77;;;;;;;14.33;83.83;100640.03;2106024;28;20016;-66
2021/10/20 04:12:00;;;;;;;14.77;7.13;;;;;;;14.33;83.89;100647.91;2106069;28;20028;-65
2021/10/20 04:13:00;;;;;;;10.23;7.07;;;;;;;14.35;83.58;100635.56;2106181;28;20024;-65
2021/10/20 04:14:01;;;;;;;12.10;7.07;;;;;;;14.33;83.62;100632.16;2106663;28;20020;-66
2021/10/20 04:15:02;;;;;;;12.07;7.13;;;;;;;14.31;83.57;100639.31;2106601;28;20024;-66
2021/10/20 04:16:02;;;;;;;;;;;;;;;14.28;84.28;100629.00;2107060;28;20119;-65
2021/10/20 04:17:03;;;;;;;7.88;6.93;;;;;;;14.28;83.60;100624.59;2105990;28;19912;-65
2021/10/20 04:18:04;;;;;;;10.43;7.28;;;;;;;14.40;83.25;100624.75;2106157;28;20020;-64
2021/10/20 04:19:04;;;;;;;8.75;6.75;;;;;;;14.48;82.66;100624.28;2107565;28;20024;-65
2021/10/20 04:20:09;;;;;;;11.77;7.97;;;;;;;14.44;83.03;100625.41;2108117;28;20031;-66
2021/10/20 04:21:10;;;;;;;10.10;7.07;;;;;;;14.36;83.38;100621.47;2108293;28;20071;-66
2021/10/20 04:22:10;;;;;;;9.93;7.53;;;;;;;14.30;83.67;100621.84;2108294;28;20023;-67
2021/10/20 04:23:10;;;;;;;10.83;7.83;;;;;;;14.27;83.65;100616.81;2107652;28;20094;-65
2021/10/20 04:24:10;;;;;;;10.37;6.93;;;;;;;14.24;84.21;100617.00;2107531;28;20020;-65
2021/10/20 04:25:11;;;;;;;9.70;7.60;;;;;;;14.21;83.83;100625.06;2108244;28;20504;-63
2021/10/20 04:26:12;;;;;;;11.70;7.88;;;;;;;14.20;83.66;100616.31;2108266;28;20020;-67
2021/10/20 04:27:12;;;;;;;9.43;7.93;;;;;;;14.24;83.81;100609.94;2107954;28;20039;-66
2021/10/20 04:28:12;;;;;;;9.23;7.63;;;;;;;14.24;83.94;100617.81;2108265;28;20024;-65
2021/10/20 04:29:12;;;;;;;11.17;8.03;;;;;;;14.22;83.53;100614.47;2107450;28;20016;-65
2021/10/20 04:30:15;;;;;;;10.20;7.93;;;;;;;14.18;84.28;100607.72;2107481;28;20016;-67
2021/10/20 04:31:15;;;;;;;10.63;7.80;;;;;;;14.20;83.90;100612.88;2108271;28;20060;-66
2021/10/20 04:32:15;;;;;;;11.23;7.57;;;;;;;14.16;84.18;100610.44;2108275;28;20023;-65
2021/10/20 04:33:16;;;;;;;12.53;8.20;;;;;;;14.21;83.73;100607.53;2108285;28;20076;-66
2021/10/20 04:34:16;;;;;;;9.10;7.60;;;;;;;14.19;83.72;100603.34;2108396;28;20073;-66
2021/10/20 04:35:19;;;;;;;9.43;8.07;;;;;;;14.18;83.60;100604.25;2107450;28;20505;-65
2021/10/20 04:36:19;;;;;;;11.63;8.45;;;;;;;14.11;84.36;100596.78;2107568;28;20558;-65
2021/10/20 04:37:25;;;;;;;11.00;8.33;;;;;;;14.06;84.37;100593.56;2107529;28;20074;-65
2021/10/20 04:38:26;;;;;;;10.80;7.95;;;;;;;14.06;84.33;100598.81;2107569;28;20115;-66
2021/10/20 04:39:26;;;;;;;9.53;8.70;;;;;;;14.01;84.74;100606.13;2107603;28;20020;-65
2021/10/20 04:40:27;;;;;;;12.13;7.80;;;;;;;13.99;84.54;100603.59;2108271;28;20434;-65
2021/10/20 04:41:27;;;;;;;10.48;7.22;;;;;;;13.99;84.59;100603.59;2107614;28;20030;-66